sensor_id;sensor_type;location;lat;lon;timestamp;P1;durP1;ratioP1;P2;durP2;ratioP2
40599;SDS011;26309;50.924;4.754;2022-10-15T00:00:35;26.52;;;21.35;;
40599;SDS011;26309;50.924;4.754;2022-10-15T00:03:01;24.55;;;20.08;;
40599;SDS011;26309;50.924;4.754;2022-10-15T00:05:27;24.55;;;20.65;;
40599;SDS011;26309;50.924;4.754;2022-10-15T00:07:53;27.63;;;21.38;;
40599;SDS011;26309;50.924;4.754;2022-10-15T00:10:19;26.77;;;21.63;;
40599;SDS011;26309;50.924;4.754;2022-10-15T00:12:45;23.73;;;20.33;;
40599;SDS011;26309;50.924;4.754;2022-10-15T00:15:12;27.92;;;21.02;;
40599;SDS011;26309;50.924;4.754;2022-10-15T00:17:38;29.20;;;22.88;;
40599;SDS011;26309;50.924;4.754;2022-10-15T00:20:05;33.90;;;25.60;;
40599;SDS011;26309;50.924;4.754;2022-10-15T00:22:34;32.42;;;23.65;;
40599;SDS011;26309;50.924;4.754;2022-10-15T00:25:00;28.77;;;22.25;;
40599;SDS011;26309;50.924;4.754;2022-10-15T00:27:26;36.85;;;25.65;;
40599;SDS011;26309;50.924;4.754;2022-10-15T00:29:52;32.38;;;24.23;;
40599;SDS011;26309;50.924;4.754;2022-10-15T00:32:18;33.33;;;25.42;;
40599;SDS011;26309;50.924;4.754;2022-10-15T00:34:43;37.17;;;28.50;;
40599;SDS011;26309;50.924;4.754;2022-10-15T00:37:10;36.90;;;28.63;;
40599;SDS011;26309;50.924;4.754;2022-10-15T00:39:36;42.50;;;29.75;;
40599;SDS011;26309;50.924;4.754;2022-10-15T00:42:02;40.25;;;30.55;;
40599;SDS011;26309;50.924;4.754;2022-10-15T00:49:38;42.15;;;30.15;;
40599;SDS011;26309;50.924;4.754;2022-10-15T00:54:41;46.75;;;32.83;;
40599;SDS011;26309;50.924;4.754;2022-10-15T00:57:12;41.67;;;30.55;;
40599;SDS011;26309;50.924;4.754;2022-10-15T00:59:42;44.95;;;31.98;;
40599;SDS011;26309;50.924;4.754;2022-10-15T01:02:13;44.22;;;31.42;;
40599;SDS011;26309;50.924;4.754;2022-10-15T01:04:41;45.45;;;31.38;;
40599;SDS011;26309;50.924;4.754;2022-10-15T01:07:08;41.30;;;29.63;;
40599;SDS011;26309;50.924;4.754;2022-10-15T01:09:33;37.33;;;27.25;;
40599;SDS011;26309;50.924;4.754;2022-10-15T01:12:00;36.88;;;27.10;;
40599;SDS011;26309;50.924;4.754;2022-10-15T01:20:01;39.53;;;29.30;;
40599;SDS011;26309;50.924;4.754;2022-10-15T01:37:38;46.92;;;33.95;;
40599;SDS011;26309;50.924;4.754;2022-10-15T01:40:07;48.33;;;33.33;;
40599;SDS011;26309;50.924;4.754;2022-10-15T01:42:47;47.88;;;33.53;;
40599;SDS011;26309;50.924;4.754;2022-10-15T01:45:23;47.30;;;32.58;;
40599;SDS011;26309;50.924;4.754;2022-10-15T01:47:55;47.97;;;35.47;;
40599;SDS011;26309;50.924;4.754;2022-10-15T01:50:24;51.20;;;34.63;;
40599;SDS011;26309;50.924;4.754;2022-10-15T01:52:54;47.92;;;36.30;;
40599;SDS011;26309;50.924;4.754;2022-10-15T01:55:23;47.47;;;33.70;;
40599;SDS011;26309;50.924;4.754;2022-10-15T01:57:50;48.85;;;36.30;;
40599;SDS011;26309;50.924;4.754;2022-10-15T02:00:19;53.03;;;37.35;;
40599;SDS011;26309;50.924;4.754;2022-10-15T02:02:45;53.30;;;37.20;;
40599;SDS011;26309;50.924;4.754;2022-10-15T02:05:15;56.47;;;37.42;;
40599;SDS011;26309;50.924;4.754;2022-10-15T02:07:54;49.67;;;35.03;;
40599;SDS011;26309;50.924;4.754;2022-10-15T02:10:23;50.85;;;36.28;;
40599;SDS011;26309;50.924;4.754;2022-10-15T02:13:12;48.55;;;35.42;;
40599;SDS011;26309;50.924;4.754;2022-10-15T02:24:28;52.17;;;36.85;;
40599;SDS011;26309;50.924;4.754;2022-10-15T02:26:59;47.45;;;35.03;;
40599;SDS011;26309;50.924;4.754;2022-10-15T02:29:28;51.00;;;34.83;;
40599;SDS011;26309;50.924;4.754;2022-10-15T02:31:58;54.03;;;36.90;;
40599;SDS011;26309;50.924;4.754;2022-10-15T02:34:26;47.58;;;33.40;;
40599;SDS011;26309;50.924;4.754;2022-10-15T02:36:54;50.80;;;35.90;;
40599;SDS011;26309;50.924;4.754;2022-10-15T02:39:22;51.60;;;33.80;;
40599;SDS011;26309;50.924;4.754;2022-10-15T02:41:52;50.00;;;35.90;;
40599;SDS011;26309;50.924;4.754;2022-10-15T02:44:19;49.95;;;34.92;;
40599;SDS011;26309;50.924;4.754;2022-10-15T02:46:45;54.70;;;36.28;;
40599;SDS011;26309;50.924;4.754;2022-10-15T02:49:11;49.15;;;33.60;;
40599;SDS011;26309;50.924;4.754;2022-10-15T02:51:37;54.95;;;35.28;;
40599;SDS011;26309;50.924;4.754;2022-10-15T02:54:04;44.33;;;32.42;;
40599;SDS011;26309;50.924;4.754;2022-10-15T02:56:31;52.22;;;31.55;;
40599;SDS011;26309;50.924;4.754;2022-10-15T02:58:57;52.53;;;34.65;;
40599;SDS011;26309;50.924;4.754;2022-10-15T03:01:23;55.65;;;34.88;;
40599;SDS011;26309;50.924;4.754;2022-10-15T03:03:49;50.58;;;33.13;;
40599;SDS011;26309;50.924;4.754;2022-10-15T03:06:15;59.42;;;35.65;;
40599;SDS011;26309;50.924;4.754;2022-10-15T03:08:41;59.13;;;36.97;;
40599;SDS011;26309;50.924;4.754;2022-10-15T03:11:08;50.60;;;33.33;;
40599;SDS011;26309;50.924;4.754;2022-10-15T03:13:35;57.58;;;36.15;;
40599;SDS011;26309;50.924;4.754;2022-10-15T03:16:05;50.95;;;33.95;;
40599;SDS011;26309;50.924;4.754;2022-10-15T03:18:31;53.10;;;34.80;;
40599;SDS011;26309;50.924;4.754;2022-10-15T03:20:57;48.00;;;33.70;;
40599;SDS011;26309;50.924;4.754;2022-10-15T03:23:24;55.95;;;35.58;;
40599;SDS011;26309;50.924;4.754;2022-10-15T03:25:51;50.08;;;33.22;;
40599;SDS011;26309;50.924;4.754;2022-10-15T03:28:18;53.45;;;33.97;;
40599;SDS011;26309;50.924;4.754;2022-10-15T03:30:44;56.63;;;33.72;;
40599;SDS011;26309;50.924;4.754;2022-10-15T03:33:10;56.60;;;32.85;;
40599;SDS011;26309;50.924;4.754;2022-10-15T03:35:36;54.38;;;32.47;;
40599;SDS011;26309;50.924;4.754;2022-10-15T03:38:03;56.17;;;32.22;;
40599;SDS011;26309;50.924;4.754;2022-10-15T03:40:29;48.30;;;30.70;;
40599;SDS011;26309;50.924;4.754;2022-10-15T03:42:55;48.53;;;31.92;;
40599;SDS011;26309;50.924;4.754;2022-10-15T03:45:22;51.65;;;32.08;;
40599;SDS011;26309;50.924;4.754;2022-10-15T03:47:48;46.40;;;29.52;;
40599;SDS011;26309;50.924;4.754;2022-10-15T03:50:14;45.17;;;28.92;;
40599;SDS011;26309;50.924;4.754;2022-10-15T03:52:40;45.08;;;28.92;;
40599;SDS011;26309;50.924;4.754;2022-10-15T03:55:07;46.17;;;30.20;;
40599;SDS011;26309;50.924;4.754;2022-10-15T03:57:35;46.40;;;29.77;;
40599;SDS011;26309;50.924;4.754;2022-10-15T04:00:01;42.75;;;29.08;;
40599;SDS011;26309;50.924;4.754;2022-10-15T04:02:29;43.30;;;29.63;;
40599;SDS011;26309;50.924;4.754;2022-10-15T04:04:55;43.75;;;30.00;;
40599;SDS011;26309;50.924;4.754;2022-10-15T04:07:21;43.25;;;28.95;;
40599;SDS011;26309;50.924;4.754;2022-10-15T04:09:48;43.33;;;27.88;;
40599;SDS011;26309;50.924;4.754;2022-10-15T04:12:14;43.65;;;28.23;;
40599;SDS011;26309;50.924;4.754;2022-10-15T04:14:40;39.83;;;27.58;;
40599;SDS011;26309;50.924;4.754;2022-10-15T04:17:06;42.97;;;28.13;;
40599;SDS011;26309;50.924;4.754;2022-10-15T04:19:32;40.97;;;27.80;;
40599;SDS011;26309;50.924;4.754;2022-10-15T04:21:58;45.08;;;27.98;;
40599;SDS011;26309;50.924;4.754;2022-10-15T04:24:24;38.38;;;26.00;;
40599;SDS011;26309;50.924;4.754;2022-10-15T04:26:50;41.65;;;26.70;;
40599;SDS011;26309;50.924;4.754;2022-10-15T04:29:16;39.00;;;26.27;;
40599;SDS011;26309;50.924;4.754;2022-10-15T04:31:42;32.35;;;23.35;;
40599;SDS011;26309;50.924;4.754;2022-10-15T04:34:08;38.95;;;24.17;;
40599;SDS011;26309;50.924;4.754;2022-10-15T04:36:34;35.58;;;24.80;;
40599;SDS011;26309;50.924;4.754;2022-10-15T04:39:01;39.47;;;24.25;;
40599;SDS011;26309;50.924;4.754;2022-10-15T04:41:26;37.80;;;22.35;;
40599;SDS011;26309;50.924;4.754;2022-10-15T04:43:52;40.47;;;24.38;;
40599;SDS011;26309;50.924;4.754;2022-10-15T04:46:19;35.65;;;24.60;;
40599;SDS011;26309;50.924;4.754;2022-10-15T04:48:46;35.42;;;23.45;;
40599;SDS011;26309;50.924;4.754;2022-10-15T04:51:16;33.78;;;22.05;;
40599;SDS011;26309;50.924;4.754;2022-10-15T04:53:44;34.08;;;21.63;;
40599;SDS011;26309;50.924;4.754;2022-10-15T04:56:11;33.97;;;22.98;;
40599;SDS011;26309;50.924;4.754;2022-10-15T04:58:39;34.67;;;22.90;;
40599;SDS011;26309;50.924;4.754;2022-10-15T05:01:10;35.65;;;23.15;;
40599;SDS011;26309;50.924;4.754;2022-10-15T05:03:37;37.50;;;23.92;;
40599;SDS011;26309;50.924;4.754;2022-10-15T05:06:09;40.60;;;23.85;;
40599;SDS011;26309;50.924;4.754;2022-10-15T05:08:38;39.08;;;24.00;;
40599;SDS011;26309;50.924;4.754;2022-10-15T05:11:23;42.58;;;24.75;;
40599;SDS011;26309;50.924;4.754;2022-10-15T05:13:51;42.28;;;25.08;;
40599;SDS011;26309;50.924;4.754;2022-10-15T05:16:19;40.30;;;25.58;;
40599;SDS011;26309;50.924;4.754;2022-10-15T05:18:47;42.42;;;24.33;;
40599;SDS011;26309;50.924;4.754;2022-10-15T05:21:16;42.25;;;24.83;;
40599;SDS011;26309;50.924;4.754;2022-10-15T05:23:43;40.30;;;25.15;;
40599;SDS011;26309;50.924;4.754;2022-10-15T05:26:13;39.28;;;24.15;;
40599;SDS011;26309;50.924;4.754;2022-10-15T05:28:43;39.95;;;24.63;;
40599;SDS011;26309;50.924;4.754;2022-10-15T05:31:10;37.22;;;23.30;;
40599;SDS011;26309;50.924;4.754;2022-10-15T05:33:38;38.15;;;22.67;;
40599;SDS011;26309;50.924;4.754;2022-10-15T05:36:23;36.58;;;22.08;;
40599;SDS011;26309;50.924;4.754;2022-10-15T05:38:52;35.75;;;21.35;;
40599;SDS011;26309;50.924;4.754;2022-10-15T05:41:19;38.40;;;22.25;;
40599;SDS011;26309;50.924;4.754;2022-10-15T05:43:46;38.47;;;21.55;;
40599;SDS011;26309;50.924;4.754;2022-10-15T05:46:13;32.90;;;20.10;;
40599;SDS011;26309;50.924;4.754;2022-10-15T05:48:38;37.85;;;20.85;;
40599;SDS011;26309;50.924;4.754;2022-10-15T05:51:07;28.92;;;18.40;;
40599;SDS011;26309;50.924;4.754;2022-10-15T05:53:35;31.90;;;18.73;;
40599;SDS011;26309;50.924;4.754;2022-10-15T05:56:02;28.38;;;17.50;;
40599;SDS011;26309;50.924;4.754;2022-10-15T05:58:29;27.35;;;16.65;;
40599;SDS011;26309;50.924;4.754;2022-10-15T06:00:58;23.35;;;15.35;;
40599;SDS011;26309;50.924;4.754;2022-10-15T06:03:25;25.42;;;15.13;;
40599;SDS011;26309;50.924;4.754;2022-10-15T06:05:52;22.77;;;14.70;;
40599;SDS011;26309;50.924;4.754;2022-10-15T06:08:18;27.17;;;15.30;;
40599;SDS011;26309;50.924;4.754;2022-10-15T06:10:45;22.30;;;14.32;;
40599;SDS011;26309;50.924;4.754;2022-10-15T06:13:11;20.15;;;13.35;;
40599;SDS011;26309;50.924;4.754;2022-10-15T06:15:42;19.45;;;12.70;;
40599;SDS011;26309;50.924;4.754;2022-10-15T06:18:12;17.92;;;12.10;;
40599;SDS011;26309;50.924;4.754;2022-10-15T06:20:43;18.45;;;12.55;;
40599;SDS011;26309;50.924;4.754;2022-10-15T06:23:15;18.00;;;11.93;;
40599;SDS011;26309;50.924;4.754;2022-10-15T06:25:40;15.00;;;11.43;;
40599;SDS011;26309;50.924;4.754;2022-10-15T06:28:06;17.80;;;11.65;;
40599;SDS011;26309;50.924;4.754;2022-10-15T06:30:36;16.77;;;10.65;;
40599;SDS011;26309;50.924;4.754;2022-10-15T06:33:02;16.90;;;10.77;;
40599;SDS011;26309;50.924;4.754;2022-10-15T06:35:28;14.48;;;10.85;;
40599;SDS011;26309;50.924;4.754;2022-10-15T06:38:02;16.90;;;10.02;;
40599;SDS011;26309;50.924;4.754;2022-10-15T06:40:29;14.70;;;10.75;;
40599;SDS011;26309;50.924;4.754;2022-10-15T06:43:02;13.55;;;8.90;;
40599;SDS011;26309;50.924;4.754;2022-10-15T06:45:28;12.00;;;8.75;;
40599;SDS011;26309;50.924;4.754;2022-10-15T06:47:54;10.85;;;8.35;;
40599;SDS011;26309;50.924;4.754;2022-10-15T06:50:20;10.70;;;8.07;;
40599;SDS011;26309;50.924;4.754;2022-10-15T06:52:46;11.68;;;8.20;;
40599;SDS011;26309;50.924;4.754;2022-10-15T06:55:11;13.38;;;7.50;;
40599;SDS011;26309;50.924;4.754;2022-10-15T06:57:37;10.73;;;5.97;;
40599;SDS011;26309;50.924;4.754;2022-10-15T07:00:04;8.75;;;6.25;;
40599;SDS011;26309;50.924;4.754;2022-10-15T07:02:30;10.68;;;6.68;;
40599;SDS011;26309;50.924;4.754;2022-10-15T07:04:58;9.32;;;6.15;;
40599;SDS011;26309;50.924;4.754;2022-10-15T07:07:24;12.95;;;6.05;;
40599;SDS011;26309;50.924;4.754;2022-10-15T07:09:50;8.20;;;6.07;;
40599;SDS011;26309;50.924;4.754;2022-10-15T07:12:18;8.30;;;6.80;;
40599;SDS011;26309;50.924;4.754;2022-10-15T07:14:46;8.55;;;6.90;;
40599;SDS011;26309;50.924;4.754;2022-10-15T07:17:13;9.43;;;6.20;;
40599;SDS011;26309;50.924;4.754;2022-10-15T07:19:39;9.75;;;6.13;;
40599;SDS011;26309;50.924;4.754;2022-10-15T07:22:05;9.35;;;6.30;;
40599;SDS011;26309;50.924;4.754;2022-10-15T07:24:31;9.95;;;5.95;;
40599;SDS011;26309;50.924;4.754;2022-10-15T07:26:57;118.28;;;41.30;;
40599;SDS011;26309;50.924;4.754;2022-10-15T07:29:23;130.38;;;55.20;;
40599;SDS011;26309;50.924;4.754;2022-10-15T07:31:49;29.25;;;17.92;;
40599;SDS011;26309;50.924;4.754;2022-10-15T07:34:14;8.35;;;6.35;;
40599;SDS011;26309;50.924;4.754;2022-10-15T07:36:40;292.10;;;98.45;;
40599;SDS011;26309;50.924;4.754;2022-10-15T07:39:07;11.38;;;8.90;;
40599;SDS011;26309;50.924;4.754;2022-10-15T07:41:33;7.10;;;5.82;;
40599;SDS011;26309;50.924;4.754;2022-10-15T07:43:59;8.18;;;5.72;;
40599;SDS011;26309;50.924;4.754;2022-10-15T07:46:25;6.97;;;5.60;;
40599;SDS011;26309;50.924;4.754;2022-10-15T07:48:51;5.97;;;5.35;;
40599;SDS011;26309;50.924;4.754;2022-10-15T07:51:17;5.60;;;5.10;;
40599;SDS011;26309;50.924;4.754;2022-10-15T07:53:43;7.18;;;5.28;;
40599;SDS011;26309;50.924;4.754;2022-10-15T07:56:10;5.75;;;5.15;;
40599;SDS011;26309;50.924;4.754;2022-10-15T07:58:36;4.82;;;4.15;;
40599;SDS011;26309;50.924;4.754;2022-10-15T08:01:04;6.10;;;3.92;;
40599;SDS011;26309;50.924;4.754;2022-10-15T08:03:31;4.60;;;4.20;;
40599;SDS011;26309;50.924;4.754;2022-10-15T08:06:01;5.05;;;4.18;;
40599;SDS011;26309;50.924;4.754;2022-10-15T08:08:29;8.38;;;3.70;;
40599;SDS011;26309;50.924;4.754;2022-10-15T08:10:55;3.58;;;3.28;;
40599;SDS011;26309;50.924;4.754;2022-10-15T08:13:21;4.20;;;3.50;;
40599;SDS011;26309;50.924;4.754;2022-10-15T08:15:47;4.97;;;3.22;;
40599;SDS011;26309;50.924;4.754;2022-10-15T08:18:13;3.75;;;2.72;;
40599;SDS011;26309;50.924;4.754;2022-10-15T08:20:39;3.50;;;2.75;;
40599;SDS011;26309;50.924;4.754;2022-10-15T08:23:10;4.03;;;2.78;;
40599;SDS011;26309;50.924;4.754;2022-10-15T08:25:39;2.42;;;2.28;;
40599;SDS011;26309;50.924;4.754;2022-10-15T08:28:06;6.72;;;2.45;;
40599;SDS011;26309;50.924;4.754;2022-10-15T08:30:34;2.83;;;1.90;;
40599;SDS011;26309;50.924;4.754;2022-10-15T08:33:00;2.38;;;2.10;;
40599;SDS011;26309;50.924;4.754;2022-10-15T08:35:26;2.50;;;1.80;;
40599;SDS011;26309;50.924;4.754;2022-10-15T08:37:52;3.42;;;1.88;;
40599;SDS011;26309;50.924;4.754;2022-10-15T08:40:20;2.13;;;1.70;;
40599;SDS011;26309;50.924;4.754;2022-10-15T08:42:46;1.92;;;1.40;;
40599;SDS011;26309;50.924;4.754;2022-10-15T08:45:15;1.50;;;1.40;;
40599;SDS011;26309;50.924;4.754;2022-10-15T08:48:18;1.50;;;1.40;;
40599;SDS011;26309;50.924;4.754;2022-10-15T08:50:39;1.50;;;1.40;;
40599;SDS011;26309;50.924;4.754;2022-10-15T08:53:33;1.20;;;1.15;;
40599;SDS011;26309;50.924;4.754;2022-10-15T08:56:10;1.13;;;1.05;;
40599;SDS011;26309;50.924;4.754;2022-10-15T09:01:23;1.23;;;1.00;;
40599;SDS011;26309;50.924;4.754;2022-10-15T09:06:33;0.85;;;0.85;;
40599;SDS011;26309;50.924;4.754;2022-10-15T09:14:47;3.30;;;2.85;;
40599;SDS011;26309;50.924;4.754;2022-10-15T09:17:21;1.15;;;1.05;;
40599;SDS011;26309;50.924;4.754;2022-10-15T09:19:51;1.88;;;1.77;;
40599;SDS011;26309;50.924;4.754;2022-10-15T09:22:25;1.70;;;0.90;;
40599;SDS011;26309;50.924;4.754;2022-10-15T09:24:55;1.48;;;0.85;;
40599;SDS011;26309;50.924;4.754;2022-10-15T09:27:32;1.60;;;1.00;;
40599;SDS011;26309;50.924;4.754;2022-10-15T09:39:04;2.00;;;1.40;;
40599;SDS011;26309;50.924;4.754;2022-10-15T09:41:59;1.00;;;0.88;;
40599;SDS011;26309;50.924;4.754;2022-10-15T09:44:48;1.33;;;1.23;;
40599;SDS011;26309;50.924;4.754;2022-10-15T09:47:25;1.58;;;0.90;;
40599;SDS011;26309;50.924;4.754;2022-10-15T09:49:57;1.90;;;1.50;;
40599;SDS011;26309;50.924;4.754;2022-10-15T09:52:29;1.10;;;0.95;;
40599;SDS011;26309;50.924;4.754;2022-10-15T09:58:11;1.70;;;1.20;;
40599;SDS011;26309;50.924;4.754;2022-10-15T10:03:21;2.17;;;1.90;;
40599;SDS011;26309;50.924;4.754;2022-10-15T10:05:50;2.08;;;1.77;;
40599;SDS011;26309;50.924;4.754;2022-10-15T10:08:26;2.53;;;1.30;;
40599;SDS011;26309;50.924;4.754;2022-10-15T10:10:58;2.65;;;1.70;;
40599;SDS011;26309;50.924;4.754;2022-10-15T10:13:27;2.63;;;2.42;;
40599;SDS011;26309;50.924;4.754;2022-10-15T10:16:00;7.18;;;6.63;;
40599;SDS011;26309;50.924;4.754;2022-10-15T10:18:29;2.95;;;2.75;;
40599;SDS011;26309;50.924;4.754;2022-10-15T10:20:57;2.90;;;2.70;;
40599;SDS011;26309;50.924;4.754;2022-10-15T10:23:31;4.25;;;1.48;;
40599;SDS011;26309;50.924;4.754;2022-10-15T10:26:00;4.43;;;4.03;;
40599;SDS011;26309;50.924;4.754;2022-10-15T10:28:30;4.13;;;3.83;;
40599;SDS011;26309;50.924;4.754;2022-10-15T10:31:03;1.75;;;1.65;;
40599;SDS011;26309;50.924;4.754;2022-10-15T10:33:40;3.33;;;2.47;;
40599;SDS011;26309;50.924;4.754;2022-10-15T10:36:25;2.08;;;1.83;;
40599;SDS011;26309;50.924;4.754;2022-10-15T10:38:57;2.95;;;1.52;;
40599;SDS011;26309;50.924;4.754;2022-10-15T10:41:50;2.00;;;1.80;;
40599;SDS011;26309;50.924;4.754;2022-10-15T10:44:31;4.03;;;3.72;;
40599;SDS011;26309;50.924;4.754;2022-10-15T10:49:38;1.48;;;1.38;;
40599;SDS011;26309;50.924;4.754;2022-10-15T10:52:04;3.95;;;3.45;;
40599;SDS011;26309;50.924;4.754;2022-10-15T10:54:42;3.20;;;1.30;;
40599;SDS011;26309;50.924;4.754;2022-10-15T10:57:09;3.45;;;3.15;;
40599;SDS011;26309;50.924;4.754;2022-10-15T10:59:43;1.20;;;1.08;;
40599;SDS011;26309;50.924;4.754;2022-10-15T11:02:16;0.90;;;0.90;;
40599;SDS011;26309;50.924;4.754;2022-10-15T11:04:42;1.13;;;1.00;;
40599;SDS011;26309;50.924;4.754;2022-10-15T11:15:42;1.38;;;0.80;;
40599;SDS011;26309;50.924;4.754;2022-10-15T11:18:19;1.52;;;0.90;;
40599;SDS011;26309;50.924;4.754;2022-10-15T11:23:48;12.32;;;10.70;;
40599;SDS011;26309;50.924;4.754;2022-10-15T11:29:15;5.63;;;4.70;;
40599;SDS011;26309;50.924;4.754;2022-10-15T11:32:00;48.50;;;33.85;;
40599;SDS011;26309;50.924;4.754;2022-10-15T11:43:23;2.85;;;2.65;;
40599;SDS011;26309;50.924;4.754;2022-10-15T11:51:19;1.52;;;1.20;;
40599;SDS011;26309;50.924;4.754;2022-10-15T11:56:59;2.63;;;0.80;;
40599;SDS011;26309;50.924;4.754;2022-10-15T11:59:32;0.80;;;0.73;;
40599;SDS011;26309;50.924;4.754;2022-10-15T12:02:09;1.00;;;0.90;;
40599;SDS011;26309;50.924;4.754;2022-10-15T12:04:53;0.88;;;0.75;;
40599;SDS011;26309;50.924;4.754;2022-10-15T12:07:27;0.73;;;0.70;;
40599;SDS011;26309;50.924;4.754;2022-10-15T12:12:42;2.65;;;1.10;;
40599;SDS011;26309;50.924;4.754;2022-10-15T12:18:17;3.72;;;1.13;;
40599;SDS011;26309;50.924;4.754;2022-10-15T12:20:49;1.20;;;1.10;;
40599;SDS011;26309;50.924;4.754;2022-10-15T12:23:40;0.93;;;0.90;;
40599;SDS011;26309;50.924;4.754;2022-10-15T12:26:25;1.65;;;1.00;;
40599;SDS011;26309;50.924;4.754;2022-10-15T12:29:01;0.88;;;0.88;;
40599;SDS011;26309;50.924;4.754;2022-10-15T12:34:25;1.90;;;1.20;;
40599;SDS011;26309;50.924;4.754;2022-10-15T12:37:00;1.80;;;1.30;;
40599;SDS011;26309;50.924;4.754;2022-10-15T12:39:29;2.55;;;1.27;;
40599;SDS011;26309;50.924;4.754;2022-10-15T12:41:56;1.30;;;1.20;;
40599;SDS011;26309;50.924;4.754;2022-10-15T12:44:27;1.38;;;1.20;;
40599;SDS011;26309;50.924;4.754;2022-10-15T12:46:55;1.98;;;1.00;;
40599;SDS011;26309;50.924;4.754;2022-10-15T12:51:51;1.48;;;1.38;;
40599;SDS011;26309;50.924;4.754;2022-10-15T12:59:57;1.67;;;1.15;;
40599;SDS011;26309;50.924;4.754;2022-10-15T13:02:35;2.05;;;1.00;;
40599;SDS011;26309;50.924;4.754;2022-10-15T13:05:07;1.63;;;1.05;;
40599;SDS011;26309;50.924;4.754;2022-10-15T13:07:48;1.20;;;1.10;;
40599;SDS011;26309;50.924;4.754;2022-10-15T13:10:17;2.67;;;0.90;;
40599;SDS011;26309;50.924;4.754;2022-10-15T13:12:53;1.17;;;0.90;;
40599;SDS011;26309;50.924;4.754;2022-10-15T13:15:25;1.08;;;0.80;;
40599;SDS011;26309;50.924;4.754;2022-10-15T13:17:53;1.42;;;0.90;;
40599;SDS011;26309;50.924;4.754;2022-10-15T13:20:54;0.85;;;0.70;;
40599;SDS011;26309;50.924;4.754;2022-10-15T13:23:18;1.70;;;1.00;;
40599;SDS011;26309;50.924;4.754;2022-10-15T13:25:47;1.23;;;0.70;;
40599;SDS011;26309;50.924;4.754;2022-10-15T13:28:28;2.67;;;0.85;;
40599;SDS011;26309;50.924;4.754;2022-10-15T13:31:02;1.52;;;0.68;;
40599;SDS011;26309;50.924;4.754;2022-10-15T13:33:42;2.42;;;0.80;;
40599;SDS011;26309;50.924;4.754;2022-10-15T13:36:17;1.88;;;0.80;;
40599;SDS011;26309;50.924;4.754;2022-10-15T13:38:54;3.42;;;1.10;;
40599;SDS011;26309;50.924;4.754;2022-10-15T13:41:26;1.33;;;0.70;;
40599;SDS011;26309;50.924;4.754;2022-10-15T13:43:55;2.92;;;0.85;;
40599;SDS011;26309;50.924;4.754;2022-10-15T13:46:28;3.22;;;1.00;;
40599;SDS011;26309;50.924;4.754;2022-10-15T13:48:57;3.05;;;0.80;;
40599;SDS011;26309;50.924;4.754;2022-10-15T13:51:26;3.30;;;0.80;;
40599;SDS011;26309;50.924;4.754;2022-10-15T13:54:06;1.52;;;0.90;;
40599;SDS011;26309;50.924;4.754;2022-10-15T13:56:34;1.13;;;0.68;;
40599;SDS011;26309;50.924;4.754;2022-10-15T13:59:01;3.08;;;0.80;;
40599;SDS011;26309;50.924;4.754;2022-10-15T14:01:28;2.75;;;1.00;;
40599;SDS011;26309;50.924;4.754;2022-10-15T14:06:25;3.72;;;1.00;;
40599;SDS011;26309;50.924;4.754;2022-10-15T14:08:59;4.20;;;0.90;;
40599;SDS011;26309;50.924;4.754;2022-10-15T14:11:44;2.45;;;0.70;;
40599;SDS011;26309;50.924;4.754;2022-10-15T14:16:58;3.83;;;1.10;;
40599;SDS011;26309;50.924;4.754;2022-10-15T14:19:46;4.28;;;0.80;;
40599;SDS011;26309;50.924;4.754;2022-10-15T14:22:19;3.78;;;0.90;;
40599;SDS011;26309;50.924;4.754;2022-10-15T14:24:51;3.17;;;0.80;;
40599;SDS011;26309;50.924;4.754;2022-10-15T14:27:28;7.88;;;1.35;;
40599;SDS011;26309;50.924;4.754;2022-10-15T14:29:55;3.08;;;1.25;;
40599;SDS011;26309;50.924;4.754;2022-10-15T14:32:27;2.95;;;1.00;;
40599;SDS011;26309;50.924;4.754;2022-10-15T14:34:57;2.78;;;1.00;;
40599;SDS011;26309;50.924;4.754;2022-10-15T14:37:28;4.97;;;1.20;;
40599;SDS011;26309;50.924;4.754;2022-10-15T14:42:47;3.28;;;1.08;;
40599;SDS011;26309;50.924;4.754;2022-10-15T14:45:27;2.15;;;0.90;;
40599;SDS011;26309;50.924;4.754;2022-10-15T14:48:00;5.65;;;1.40;;
40599;SDS011;26309;50.924;4.754;2022-10-15T14:50:47;2.88;;;1.20;;
40599;SDS011;26309;50.924;4.754;2022-10-15T14:53:19;5.82;;;1.20;;
40599;SDS011;26309;50.924;4.754;2022-10-15T14:55:50;5.68;;;1.10;;
40599;SDS011;26309;50.924;4.754;2022-10-15T14:58:20;1.75;;;0.85;;
40599;SDS011;26309;50.924;4.754;2022-10-15T15:00:53;2.92;;;1.20;;
40599;SDS011;26309;50.924;4.754;2022-10-15T15:03:28;3.15;;;1.00;;
40599;SDS011;26309;50.924;4.754;2022-10-15T15:06:02;3.78;;;1.23;;
40599;SDS011;26309;50.924;4.754;2022-10-15T15:08:28;4.38;;;1.10;;
40599;SDS011;26309;50.924;4.754;2022-10-15T15:10:54;2.83;;;1.00;;
40599;SDS011;26309;50.924;4.754;2022-10-15T15:13:23;2.83;;;1.10;;
40599;SDS011;26309;50.924;4.754;2022-10-15T15:15:50;3.58;;;0.95;;
40599;SDS011;26309;50.924;4.754;2022-10-15T15:18:16;4.80;;;1.20;;
40599;SDS011;26309;50.924;4.754;2022-10-15T15:20:43;3.63;;;1.05;;
40599;SDS011;26309;50.924;4.754;2022-10-15T15:23:14;4.30;;;1.40;;
40599;SDS011;26309;50.924;4.754;2022-10-15T15:25:45;8.38;;;1.30;;
40599;SDS011;26309;50.924;4.754;2022-10-15T15:28:12;4.95;;;1.27;;
40599;SDS011;26309;50.924;4.754;2022-10-15T15:30:41;3.65;;;1.20;;
40599;SDS011;26309;50.924;4.754;2022-10-15T15:33:09;4.57;;;1.30;;
40599;SDS011;26309;50.924;4.754;2022-10-15T15:38:08;4.68;;;1.17;;
40599;SDS011;26309;50.924;4.754;2022-10-15T15:40:34;2.85;;;1.13;;
40599;SDS011;26309;50.924;4.754;2022-10-15T15:43:00;4.22;;;1.15;;
40599;SDS011;26309;50.924;4.754;2022-10-15T15:45:26;4.28;;;1.30;;
40599;SDS011;26309;50.924;4.754;2022-10-15T15:47:53;2.65;;;1.08;;
40599;SDS011;26309;50.924;4.754;2022-10-15T15:50:23;4.55;;;1.13;;
40599;SDS011;26309;50.924;4.754;2022-10-15T15:52:49;3.28;;;1.20;;
40599;SDS011;26309;50.924;4.754;2022-10-15T15:55:15;4.72;;;1.15;;
40599;SDS011;26309;50.924;4.754;2022-10-15T15:57:41;3.53;;;1.08;;
40599;SDS011;26309;50.924;4.754;2022-10-15T16:00:08;4.63;;;0.98;;
40599;SDS011;26309;50.924;4.754;2022-10-15T16:02:34;4.95;;;1.30;;
40599;SDS011;26309;50.924;4.754;2022-10-15T16:05:01;3.88;;;0.93;;
40599;SDS011;26309;50.924;4.754;2022-10-15T16:07:28;5.45;;;1.27;;
40599;SDS011;26309;50.924;4.754;2022-10-15T16:09:53;5.65;;;1.33;;
40599;SDS011;26309;50.924;4.754;2022-10-15T16:12:19;4.28;;;1.60;;
40599;SDS011;26309;50.924;4.754;2022-10-15T16:14:45;3.00;;;1.40;;
40599;SDS011;26309;50.924;4.754;2022-10-15T16:17:11;4.65;;;1.40;;
40599;SDS011;26309;50.924;4.754;2022-10-15T16:19:37;4.50;;;1.17;;
40599;SDS011;26309;50.924;4.754;2022-10-15T16:22:03;6.30;;;1.42;;
40599;SDS011;26309;50.924;4.754;2022-10-15T16:24:29;4.75;;;1.33;;
40599;SDS011;26309;50.924;4.754;2022-10-15T16:26:55;3.30;;;1.30;;
40599;SDS011;26309;50.924;4.754;2022-10-15T16:29:21;6.03;;;1.33;;
40599;SDS011;26309;50.924;4.754;2022-10-15T16:31:47;5.45;;;1.42;;
40599;SDS011;26309;50.924;4.754;2022-10-15T16:34:12;6.22;;;1.35;;
40599;SDS011;26309;50.924;4.754;2022-10-15T16:36:38;4.60;;;1.40;;
40599;SDS011;26309;50.924;4.754;2022-10-15T16:39:04;5.30;;;1.50;;
40599;SDS011;26309;50.924;4.754;2022-10-15T16:41:30;7.03;;;1.58;;
40599;SDS011;26309;50.924;4.754;2022-10-15T16:43:57;3.15;;;1.30;;
40599;SDS011;26309;50.924;4.754;2022-10-15T16:46:22;5.20;;;1.40;;
40599;SDS011;26309;50.924;4.754;2022-10-15T16:48:52;5.00;;;1.50;;
40599;SDS011;26309;50.924;4.754;2022-10-15T16:51:19;3.28;;;1.48;;
40599;SDS011;26309;50.924;4.754;2022-10-15T16:53:45;3.40;;;1.63;;